sensor_id;sensor_type;location;lat;lon;timestamp;P1;durP1;ratioP1;P2;durP2;ratioP2
19605;SDS011;9950;50.168;8.210;2023-02-15T00:01:51;68.78;;;22.33;;
19605;SDS011;9950;50.168;8.210;2023-02-15T00:04:19;91.72;;;22.33;;
19605;SDS011;9950;50.168;8.210;2023-02-15T00:06:46;121.50;;;22.25;;
19605;SDS011;9950;50.168;8.210;2023-02-15T00:09:14;174.57;;;22.67;;
19605;SDS011;9950;50.168;8.210;2023-02-15T00:11:41;79.07;;;20.88;;
19605;SDS011;9950;50.168;8.210;2023-02-15T00:14:16;104.75;;;19.95;;
19605;SDS011;9950;50.168;8.210;2023-02-15T00:16:44;102.90;;;20.70;;
19605;SDS011;9950;50.168;8.210;2023-02-15T00:19:14;137.57;;;23.88;;
19605;SDS011;9950;50.168;8.210;2023-02-15T00:21:41;155.90;;;25.45;;
19605;SDS011;9950;50.168;8.210;2023-02-15T00:24:09;206.05;;;27.52;;
19605;SDS011;9950;50.168;8.210;2023-02-15T00:26:38;123.50;;;25.17;;
19605;SDS011;9950;50.168;8.210;2023-02-15T00:29:05;124.75;;;24.00;;
19605;SDS011;9950;50.168;8.210;2023-02-15T00:31:33;66.53;;;20.70;;
19605;SDS011;9950;50.168;8.210;2023-02-15T00:34:01;56.13;;;19.27;;
19605;SDS011;9950;50.168;8.210;2023-02-15T00:36:29;69.72;;;20.38;;
19605;SDS011;9950;50.168;8.210;2023-02-15T00:38:57;53.78;;;17.55;;
19605;SDS011;9950;50.168;8.210;2023-02-15T00:41:24;57.50;;;17.83;;
19605;SDS011;9950;50.168;8.210;2023-02-15T00:43:51;59.63;;;17.95;;
19605;SDS011;9950;50.168;8.210;2023-02-15T00:46:18;44.28;;;15.70;;
19605;SDS011;9950;50.168;8.210;2023-02-15T00:48:45;49.92;;;17.63;;
19605;SDS011;9950;50.168;8.210;2023-02-15T00:51:12;47.83;;;17.83;;
19605;SDS011;9950;50.168;8.210;2023-02-15T00:53:41;51.97;;;19.33;;
19605;SDS011;9950;50.168;8.210;2023-02-15T00:56:09;47.63;;;17.98;;
19605;SDS011;9950;50.168;8.210;2023-02-15T00:58:36;50.03;;;17.45;;
19605;SDS011;9950;50.168;8.210;2023-02-15T01:01:04;45.45;;;16.48;;
19605;SDS011;9950;50.168;8.210;2023-02-15T01:03:31;37.20;;;14.68;;
19605;SDS011;9950;50.168;8.210;2023-02-15T01:05:58;38.58;;;15.48;;
19605;SDS011;9950;50.168;8.210;2023-02-15T01:08:26;40.63;;;15.40;;
19605;SDS011;9950;50.168;8.210;2023-02-15T01:10:54;37.38;;;15.85;;
19605;SDS011;9950;50.168;8.210;2023-02-15T01:13:21;41.97;;;15.75;;
19605;SDS011;9950;50.168;8.210;2023-02-15T01:15:52;38.97;;;16.52;;
19605;SDS011;9950;50.168;8.210;2023-02-15T01:18:20;43.08;;;17.35;;
19605;SDS011;9950;50.168;8.210;2023-02-15T01:20:47;46.05;;;17.85;;
19605;SDS011;9950;50.168;8.210;2023-02-15T01:23:14;42.88;;;17.02;;
19605;SDS011;9950;50.168;8.210;2023-02-15T01:25:41;47.58;;;17.10;;
19605;SDS011;9950;50.168;8.210;2023-02-15T01:28:11;44.05;;;17.00;;
19605;SDS011;9950;50.168;8.210;2023-02-15T01:30:38;45.40;;;17.75;;
19605;SDS011;9950;50.168;8.210;2023-02-15T01:33:06;54.83;;;18.20;;
19605;SDS011;9950;50.168;8.210;2023-02-15T01:35:36;48.42;;;17.73;;
19605;SDS011;9950;50.168;8.210;2023-02-15T01:38:03;48.47;;;18.25;;
19605;SDS011;9950;50.168;8.210;2023-02-15T01:40:30;45.80;;;18.17;;
19605;SDS011;9950;50.168;8.210;2023-02-15T01:42:58;51.13;;;18.67;;
19605;SDS011;9950;50.168;8.210;2023-02-15T01:45:27;60.15;;;18.30;;
19605;SDS011;9950;50.168;8.210;2023-02-15T01:47:56;42.85;;;17.05;;
19605;SDS011;9950;50.168;8.210;2023-02-15T01:50:24;47.33;;;18.15;;
19605;SDS011;9950;50.168;8.210;2023-02-15T01:52:54;45.28;;;17.77;;
19605;SDS011;9950;50.168;8.210;2023-02-15T01:55:23;58.20;;;19.98;;
19605;SDS011;9950;50.168;8.210;2023-02-15T01:57:52;47.78;;;16.90;;
19605;SDS011;9950;50.168;8.210;2023-02-15T02:00:19;32.75;;;14.25;;
19605;SDS011;9950;50.168;8.210;2023-02-15T02:02:48;36.15;;;15.65;;
19605;SDS011;9950;50.168;8.210;2023-02-15T02:05:17;33.67;;;14.63;;
19605;SDS011;9950;50.168;8.210;2023-02-15T02:07:44;38.38;;;15.30;;
19605;SDS011;9950;50.168;8.210;2023-02-15T02:10:13;36.97;;;14.82;;
19605;SDS011;9950;50.168;8.210;2023-02-15T02:12:42;49.78;;;16.30;;
19605;SDS011;9950;50.168;8.210;2023-02-15T02:15:10;39.42;;;16.58;;
19605;SDS011;9950;50.168;8.210;2023-02-15T02:17:41;44.45;;;17.70;;
19605;SDS011;9950;50.168;8.210;2023-02-15T02:20:17;46.47;;;15.18;;
19605;SDS011;9950;50.168;8.210;2023-02-15T02:23:13;61.83;;;16.63;;
19605;SDS011;9950;50.168;8.210;2023-02-15T02:28:45;44.38;;;16.50;;
19605;SDS011;9950;50.168;8.210;2023-02-15T02:31:23;47.30;;;16.42;;
19605;SDS011;9950;50.168;8.210;2023-02-15T02:34:01;48.90;;;15.60;;
19605;SDS011;9950;50.168;8.210;2023-02-15T02:36:31;55.63;;;16.48;;
19605;SDS011;9950;50.168;8.210;2023-02-15T02:39:06;49.05;;;16.10;;
19605;SDS011;9950;50.168;8.210;2023-02-15T02:41:36;54.70;;;17.13;;
19605;SDS011;9950;50.168;8.210;2023-02-15T02:44:07;54.28;;;17.65;;
19605;SDS011;9950;50.168;8.210;2023-02-15T02:46:37;50.17;;;16.90;;
19605;SDS011;9950;50.168;8.210;2023-02-15T02:49:06;57.97;;;17.75;;
19605;SDS011;9950;50.168;8.210;2023-02-15T02:51:33;68.10;;;17.05;;
19605;SDS011;9950;50.168;8.210;2023-02-15T02:54:01;59.55;;;19.60;;
19605;SDS011;9950;50.168;8.210;2023-02-15T02:56:31;47.50;;;17.33;;
19605;SDS011;9950;50.168;8.210;2023-02-15T02:59:00;65.88;;;18.65;;
19605;SDS011;9950;50.168;8.210;2023-02-15T03:01:29;75.45;;;18.48;;
19605;SDS011;9950;50.168;8.210;2023-02-15T03:03:59;68.82;;;18.48;;
19605;SDS011;9950;50.168;8.210;2023-02-15T03:06:31;85.18;;;20.60;;
19605;SDS011;9950;50.168;8.210;2023-02-15T03:09:03;75.82;;;19.73;;
19605;SDS011;9950;50.168;8.210;2023-02-15T03:11:37;79.35;;;18.95;;
19605;SDS011;9950;50.168;8.210;2023-02-15T03:14:04;69.50;;;19.65;;
19605;SDS011;9950;50.168;8.210;2023-02-15T03:16:31;73.35;;;19.75;;
19605;SDS011;9950;50.168;8.210;2023-02-15T03:18:59;79.93;;;20.63;;
19605;SDS011;9950;50.168;8.210;2023-02-15T03:21:32;73.70;;;18.50;;
19605;SDS011;9950;50.168;8.210;2023-02-15T03:24:03;55.88;;;18.50;;
19605;SDS011;9950;50.168;8.210;2023-02-15T03:26:32;72.20;;;19.95;;
19605;SDS011;9950;50.168;8.210;2023-02-15T03:29:01;57.33;;;18.65;;
19605;SDS011;9950;50.168;8.210;2023-02-15T03:31:29;70.63;;;20.85;;
19605;SDS011;9950;50.168;8.210;2023-02-15T03:33:59;68.03;;;19.50;;
19605;SDS011;9950;50.168;8.210;2023-02-15T03:36:28;61.53;;;20.13;;
19605;SDS011;9950;50.168;8.210;2023-02-15T03:38:59;64.22;;;21.55;;
19605;SDS011;9950;50.168;8.210;2023-02-15T03:41:30;69.80;;;20.70;;
19605;SDS011;9950;50.168;8.210;2023-02-15T03:43:59;62.13;;;20.80;;
19605;SDS011;9950;50.168;8.210;2023-02-15T03:46:28;63.67;;;19.90;;
19605;SDS011;9950;50.168;8.210;2023-02-15T03:48:56;64.38;;;21.42;;
19605;SDS011;9950;50.168;8.210;2023-02-15T03:51:25;62.55;;;19.85;;
19605;SDS011;9950;50.168;8.210;2023-02-15T03:54:01;53.70;;;18.40;;
19605;SDS011;9950;50.168;8.210;2023-02-15T03:56:29;70.38;;;20.08;;
19605;SDS011;9950;50.168;8.210;2023-02-15T03:58:56;56.17;;;19.45;;
19605;SDS011;9950;50.168;8.210;2023-02-15T04:01:43;57.35;;;19.40;;
19605;SDS011;9950;50.168;8.210;2023-02-15T04:04:24;59.85;;;19.50;;
19605;SDS011;9950;50.168;8.210;2023-02-15T04:06:52;60.55;;;19.48;;
19605;SDS011;9950;50.168;8.210;2023-02-15T04:09:20;61.70;;;20.75;;
19605;SDS011;9950;50.168;8.210;2023-02-15T04:12:05;57.85;;;19.23;;
19605;SDS011;9950;50.168;8.210;2023-02-15T04:14:32;69.70;;;21.10;;
19605;SDS011;9950;50.168;8.210;2023-02-15T04:17:17;61.08;;;19.48;;
19605;SDS011;9950;50.168;8.210;2023-02-15T04:19:44;60.63;;;19.83;;
19605;SDS011;9950;50.168;8.210;2023-02-15T04:22:29;59.67;;;19.25;;
19605;SDS011;9950;50.168;8.210;2023-02-15T04:25:15;56.42;;;18.85;;
19605;SDS011;9950;50.168;8.210;2023-02-15T04:27:44;60.35;;;20.63;;
19605;SDS011;9950;50.168;8.210;2023-02-15T04:30:12;61.58;;;19.92;;
19605;SDS011;9950;50.168;8.210;2023-02-15T04:32:40;67.15;;;19.88;;
19605;SDS011;9950;50.168;8.210;2023-02-15T04:35:07;65.07;;;20.63;;
19605;SDS011;9950;50.168;8.210;2023-02-15T04:37:35;72.22;;;19.00;;
19605;SDS011;9950;50.168;8.210;2023-02-15T04:40:02;68.13;;;19.20;;
19605;SDS011;9950;50.168;8.210;2023-02-15T04:42:31;59.58;;;19.55;;
19605;SDS011;9950;50.168;8.210;2023-02-15T04:44:58;83.05;;;20.42;;
19605;SDS011;9950;50.168;8.210;2023-02-15T04:47:25;61.90;;;17.70;;
19605;SDS011;9950;50.168;8.210;2023-02-15T04:49:52;76.45;;;19.65;;
19605;SDS011;9950;50.168;8.210;2023-02-15T04:52:19;72.97;;;21.08;;
19605;SDS011;9950;50.168;8.210;2023-02-15T04:54:47;71.53;;;20.45;;
19605;SDS011;9950;50.168;8.210;2023-02-15T04:57:14;82.30;;;19.55;;
19605;SDS011;9950;50.168;8.210;2023-02-15T04:59:42;98.43;;;20.48;;
19605;SDS011;9950;50.168;8.210;2023-02-15T05:02:09;102.32;;;20.98;;
19605;SDS011;9950;50.168;8.210;2023-02-15T05:04:36;79.97;;;20.17;;
19605;SDS011;9950;50.168;8.210;2023-02-15T05:07:04;77.93;;;19.52;;
19605;SDS011;9950;50.168;8.210;2023-02-15T05:09:31;80.30;;;19.85;;
19605;SDS011;9950;50.168;8.210;2023-02-15T05:11:58;87.90;;;20.65;;
19605;SDS011;9950;50.168;8.210;2023-02-15T05:14:25;68.15;;;19.30;;
19605;SDS011;9950;50.168;8.210;2023-02-15T05:16:53;78.38;;;19.52;;
19605;SDS011;9950;50.168;8.210;2023-02-15T05:19:21;90.88;;;20.80;;
19605;SDS011;9950;50.168;8.210;2023-02-15T05:21:49;107.22;;;21.45;;
19605;SDS011;9950;50.168;8.210;2023-02-15T05:24:16;90.07;;;20.27;;
19605;SDS011;9950;50.168;8.210;2023-02-15T05:27:01;122.22;;;21.98;;
19605;SDS011;9950;50.168;8.210;2023-02-15T05:30:01;81.97;;;19.27;;
19605;SDS011;9950;50.168;8.210;2023-02-15T05:32:29;80.68;;;19.23;;
19605;SDS011;9950;50.168;8.210;2023-02-15T05:34:56;136.35;;;23.33;;
19605;SDS011;9950;50.168;8.210;2023-02-15T05:37:24;93.40;;;20.45;;
19605;SDS011;9950;50.168;8.210;2023-02-15T05:39:51;123.15;;;21.90;;
19605;SDS011;9950;50.168;8.210;2023-02-15T05:42:18;131.98;;;22.02;;
19605;SDS011;9950;50.168;8.210;2023-02-15T05:44:45;98.93;;;20.98;;
19605;SDS011;9950;50.168;8.210;2023-02-15T05:47:12;129.90;;;24.13;;
19605;SDS011;9950;50.168;8.210;2023-02-15T05:49:41;133.98;;;24.63;;
19605;SDS011;9950;50.168;8.210;2023-02-15T05:52:08;130.20;;;23.58;;
19605;SDS011;9950;50.168;8.210;2023-02-15T05:54:37;89.85;;;19.25;;
19605;SDS011;9950;50.168;8.210;2023-02-15T05:57:04;107.00;;;20.55;;
19605;SDS011;9950;50.168;8.210;2023-02-15T05:59:31;99.00;;;20.85;;
19605;SDS011;9950;50.168;8.210;2023-02-15T06:01:58;90.57;;;19.98;;
19605;SDS011;9950;50.168;8.210;2023-02-15T06:04:25;125.30;;;21.00;;
19605;SDS011;9950;50.168;8.210;2023-02-15T06:06:54;115.25;;;21.60;;
19605;SDS011;9950;50.168;8.210;2023-02-15T06:09:21;115.10;;;19.40;;
19605;SDS011;9950;50.168;8.210;2023-02-15T06:11:48;134.50;;;23.02;;
19605;SDS011;9950;50.168;8.210;2023-02-15T06:14:15;92.63;;;20.42;;
19605;SDS011;9950;50.168;8.210;2023-02-15T06:16:43;100.00;;;21.20;;
19605;SDS011;9950;50.168;8.210;2023-02-15T06:19:10;156.65;;;23.98;;
19605;SDS011;9950;50.168;8.210;2023-02-15T06:21:37;113.68;;;21.67;;
19605;SDS011;9950;50.168;8.210;2023-02-15T06:24:07;105.88;;;20.75;;
19605;SDS011;9950;50.168;8.210;2023-02-15T06:26:34;106.90;;;22.70;;
19605;SDS011;9950;50.168;8.210;2023-02-15T06:29:02;105.43;;;20.98;;
19605;SDS011;9950;50.168;8.210;2023-02-15T06:31:29;116.97;;;19.55;;
19605;SDS011;9950;50.168;8.210;2023-02-15T06:33:56;136.63;;;23.00;;
19605;SDS011;9950;50.168;8.210;2023-02-15T06:36:26;130.02;;;21.85;;
19605;SDS011;9950;50.168;8.210;2023-02-15T06:38:53;147.25;;;20.50;;
19605;SDS011;9950;50.168;8.210;2023-02-15T06:41:22;165.45;;;20.67;;
19605;SDS011;9950;50.168;8.210;2023-02-15T06:43:49;151.07;;;22.65;;
19605;SDS011;9950;50.168;8.210;2023-02-15T06:46:16;145.43;;;21.63;;
19605;SDS011;9950;50.168;8.210;2023-02-15T06:48:43;194.10;;;23.38;;
19605;SDS011;9950;50.168;8.210;2023-02-15T06:51:10;133.68;;;22.27;;
19605;SDS011;9950;50.168;8.210;2023-02-15T06:53:37;168.57;;;24.60;;
19605;SDS011;9950;50.168;8.210;2023-02-15T06:56:06;179.75;;;23.33;;
19605;SDS011;9950;50.168;8.210;2023-02-15T06:58:35;200.00;;;23.95;;
19605;SDS011;9950;50.168;8.210;2023-02-15T07:01:03;262.02;;;31.45;;
19605;SDS011;9950;50.168;8.210;2023-02-15T07:03:30;206.32;;;27.15;;
19605;SDS011;9950;50.168;8.210;2023-02-15T07:05:58;152.13;;;22.90;;
19605;SDS011;9950;50.168;8.210;2023-02-15T07:08:25;158.90;;;23.27;;
19605;SDS011;9950;50.168;8.210;2023-02-15T07:10:53;145.90;;;22.98;;
19605;SDS011;9950;50.168;8.210;2023-02-15T07:13:41;153.80;;;26.10;;
19605;SDS011;9950;50.168;8.210;2023-02-15T07:16:08;177.38;;;25.08;;
19605;SDS011;9950;50.168;8.210;2023-02-15T07:18:35;199.80;;;26.60;;
19605;SDS011;9950;50.168;8.210;2023-02-15T07:21:03;278.85;;;36.08;;
19605;SDS011;9950;50.168;8.210;2023-02-15T07:23:33;199.20;;;28.00;;
19605;SDS011;9950;50.168;8.210;2023-02-15T07:26:00;218.13;;;30.67;;
19605;SDS011;9950;50.168;8.210;2023-02-15T07:28:28;160.32;;;24.02;;
19605;SDS011;9950;50.168;8.210;2023-02-15T07:30:56;150.65;;;23.15;;
19605;SDS011;9950;50.168;8.210;2023-02-15T07:33:23;195.02;;;28.17;;
19605;SDS011;9950;50.168;8.210;2023-02-15T07:35:53;238.27;;;28.52;;
19605;SDS011;9950;50.168;8.210;2023-02-15T07:38:20;272.25;;;31.23;;
19605;SDS011;9950;50.168;8.210;2023-02-15T07:40:48;227.80;;;30.23;;
19605;SDS011;9950;50.168;8.210;2023-02-15T07:43:15;231.82;;;30.85;;
19605;SDS011;9950;50.168;8.210;2023-02-15T07:45:42;218.25;;;25.92;;
19605;SDS011;9950;50.168;8.210;2023-02-15T07:48:11;199.68;;;26.83;;
19605;SDS011;9950;50.168;8.210;2023-02-15T07:50:38;213.10;;;26.48;;
19605;SDS011;9950;50.168;8.210;2023-02-15T07:53:05;254.07;;;27.67;;
19605;SDS011;9950;50.168;8.210;2023-02-15T07:55:32;297.13;;;32.35;;
19605;SDS011;9950;50.168;8.210;2023-02-15T07:57:59;269.90;;;29.98;;
19605;SDS011;9950;50.168;8.210;2023-02-15T08:00:27;230.68;;;26.67;;
19605;SDS011;9950;50.168;8.210;2023-02-15T08:02:55;333.33;;;34.35;;
19605;SDS011;9950;50.168;8.210;2023-02-15T08:05:47;168.48;;;25.48;;
19605;SDS011;9950;50.168;8.210;2023-02-15T08:08:14;223.88;;;26.98;;
19605;SDS011;9950;50.168;8.210;2023-02-15T08:10:57;285.63;;;31.35;;
19605;SDS011;9950;50.168;8.210;2023-02-15T08:13:42;387.85;;;30.17;;
19605;SDS011;9950;50.168;8.210;2023-02-15T08:16:18;260.10;;;24.27;;
19605;SDS011;9950;50.168;8.210;2023-02-15T08:18:45;276.52;;;24.25;;
19605;SDS011;9950;50.168;8.210;2023-02-15T08:21:16;209.23;;;24.52;;
19605;SDS011;9950;50.168;8.210;2023-02-15T08:23:44;206.90;;;24.15;;
19605;SDS011;9950;50.168;8.210;2023-02-15T08:26:11;185.23;;;23.25;;
19605;SDS011;9950;50.168;8.210;2023-02-15T08:28:38;132.88;;;20.13;;
19605;SDS011;9950;50.168;8.210;2023-02-15T08:31:05;153.05;;;21.13;;
19605;SDS011;9950;50.168;8.210;2023-02-15T08:33:33;140.38;;;19.60;;
19605;SDS011;9950;50.168;8.210;2023-02-15T08:36:04;208.20;;;21.30;;
19605;SDS011;9950;50.168;8.210;2023-02-15T08:38:33;116.10;;;20.55;;
19605;SDS011;9950;50.168;8.210;2023-02-15T08:41:08;259.45;;;25.92;;
19605;SDS011;9950;50.168;8.210;2023-02-15T08:43:35;121.57;;;18.80;;
19605;SDS011;9950;50.168;8.210;2023-02-15T08:46:03;161.02;;;21.55;;
19605;SDS011;9950;50.168;8.210;2023-02-15T08:48:30;184.43;;;22.65;;
19605;SDS011;9950;50.168;8.210;2023-02-15T08:50:57;228.25;;;25.13;;
19605;SDS011;9950;50.168;8.210;2023-02-15T08:53:24;154.40;;;23.40;;
19605;SDS011;9950;50.168;8.210;2023-02-15T08:55:56;169.73;;;22.02;;
19605;SDS011;9950;50.168;8.210;2023-02-15T08:58:23;173.35;;;24.15;;
19605;SDS011;9950;50.168;8.210;2023-02-15T09:00:50;204.20;;;22.63;;
19605;SDS011;9950;50.168;8.210;2023-02-15T09:03:17;99.63;;;19.92;;
19605;SDS011;9950;50.168;8.210;2023-02-15T09:05:44;125.85;;;21.63;;
19605;SDS011;9950;50.168;8.210;2023-02-15T09:08:12;144.43;;;20.73;;
19605;SDS011;9950;50.168;8.210;2023-02-15T09:10:39;103.15;;;20.13;;
19605;SDS011;9950;50.168;8.210;2023-02-15T09:13:08;114.10;;;19.65;;
19605;SDS011;9950;50.168;8.210;2023-02-15T09:15:38;114.18;;;20.15;;
19605;SDS011;9950;50.168;8.210;2023-02-15T09:18:05;121.28;;;20.48;;
19605;SDS011;9950;50.168;8.210;2023-02-15T09:20:34;112.03;;;19.00;;
19605;SDS011;9950;50.168;8.210;2023-02-15T09:23:02;131.10;;;20.65;;
19605;SDS011;9950;50.168;8.210;2023-02-15T09:25:29;81.05;;;18.30;;
19605;SDS011;9950;50.168;8.210;2023-02-15T09:27:56;119.55;;;19.05;;
19605;SDS011;9950;50.168;8.210;2023-02-15T09:30:24;86.28;;;17.90;;
19605;SDS011;9950;50.168;8.210;2023-02-15T09:32:52;143.63;;;19.95;;
19605;SDS011;9950;50.168;8.210;2023-02-15T09:35:19;144.50;;;21.52;;
19605;SDS011;9950;50.168;8.210;2023-02-15T09:37:46;177.75;;;20.88;;
19605;SDS011;9950;50.168;8.210;2023-02-15T09:40:13;168.57;;;21.13;;
19605;SDS011;9950;50.168;8.210;2023-02-15T09:42:55;139.65;;;20.90;;
19605;SDS011;9950;50.168;8.210;2023-02-15T09:45:32;168.82;;;20.23;;
19605;SDS011;9950;50.168;8.210;2023-02-15T09:48:18;201.82;;;20.40;;
19605;SDS011;9950;50.168;8.210;2023-02-15T09:50:54;138.90;;;19.80;;
19605;SDS011;9950;50.168;8.210;2023-02-15T09:53:29;181.25;;;21.25;;
19605;SDS011;9950;50.168;8.210;2023-02-15T09:56:00;127.55;;;20.83;;
19605;SDS011;9950;50.168;8.210;2023-02-15T09:58:32;140.52;;;19.75;;
19605;SDS011;9950;50.168;8.210;2023-02-15T10:01:05;113.47;;;17.05;;
19605;SDS011;9950;50.168;8.210;2023-02-15T10:03:42;137.90;;;20.75;;
19605;SDS011;9950;50.168;8.210;2023-02-15T10:06:15;95.45;;;19.58;;
19605;SDS011;9950;50.168;8.210;2023-02-15T10:08:59;112.47;;;21.27;;
19605;SDS011;9950;50.168;8.210;2023-02-15T10:11:31;104.38;;;18.55;;
19605;SDS011;9950;50.168;8.210;2023-02-15T10:14:13;72.63;;;18.45;;
19605;SDS011;9950;50.168;8.210;2023-02-15T10:16:45;98.60;;;20.33;;
19605;SDS011;9950;50.168;8.210;2023-02-15T10:19:16;86.38;;;17.67;;
19605;SDS011;9950;50.168;8.210;2023-02-15T10:21:49;82.32;;;18.10;;
19605;SDS011;9950;50.168;8.210;2023-02-15T10:24:22;103.70;;;19.17;;
19605;SDS011;9950;50.168;8.210;2023-02-15T10:26:53;102.65;;;17.73;;
19605;SDS011;9950;50.168;8.210;2023-02-15T10:29:25;112.40;;;18.30;;
19605;SDS011;9950;50.168;8.210;2023-02-15T10:31:57;123.60;;;16.88;;
19605;SDS011;9950;50.168;8.210;2023-02-15T10:34:27;156.02;;;22.52;;
19605;SDS011;9950;50.168;8.210;2023-02-15T10:39:39;132.88;;;21.00;;
19605;SDS011;9950;50.168;8.210;2023-02-15T10:42:10;66.95;;;20.35;;
19605;SDS011;9950;50.168;8.210;2023-02-15T10:44:42;80.15;;;19.55;;
19605;SDS011;9950;50.168;8.210;2023-02-15T10:47:30;70.35;;;20.15;;
19605;SDS011;9950;50.168;8.210;2023-02-15T10:50:06;66.32;;;19.50;;
19605;SDS011;9950;50.168;8.210;2023-02-15T10:52:39;78.10;;;19.30;;
19605;SDS011;9950;50.168;8.210;2023-02-15T10:55:08;62.83;;;16.92;;
19605;SDS011;9950;50.168;8.210;2023-02-15T10:57:42;81.43;;;17.38;;
19605;SDS011;9950;50.168;8.210;2023-02-15T11:00:15;55.85;;;16.48;;
19605;SDS011;9950;50.168;8.210;2023-02-15T11:03:00;70.03;;;21.10;;
19605;SDS011;9950;50.168;8.210;2023-02-15T11:05:35;56.58;;;17.85;;
19605;SDS011;9950;50.168;8.210;2023-02-15T11:08:07;64.85;;;18.90;;
19605;SDS011;9950;50.168;8.210;2023-02-15T11:10:35;67.88;;;17.70;;
19605;SDS011;9950;50.168;8.210;2023-02-15T11:13:06;67.50;;;17.10;;
19605;SDS011;9950;50.168;8.210;2023-02-15T11:15:36;85.63;;;16.90;;
19605;SDS011;9950;50.168;8.210;2023-02-15T11:18:08;110.50;;;18.98;;
19605;SDS011;9950;50.168;8.210;2023-02-15T11:20:41;78.38;;;17.38;;
19605;SDS011;9950;50.168;8.210;2023-02-15T11:23:11;61.88;;;16.50;;
19605;SDS011;9950;50.168;8.210;2023-02-15T11:25:40;59.65;;;18.27;;
19605;SDS011;9950;50.168;8.210;2023-02-15T11:28:10;72.40;;;16.95;;
19605;SDS011;9950;50.168;8.210;2023-02-15T11:30:42;63.90;;;16.98;;
19605;SDS011;9950;50.168;8.210;2023-02-15T11:33:14;47.50;;;16.63;;
19605;SDS011;9950;50.168;8.210;2023-02-15T11:35:47;45.60;;;16.83;;
19605;SDS011;9950;50.168;8.210;2023-02-15T11:38:16;45.70;;;16.08;;
19605;SDS011;9950;50.168;8.210;2023-02-15T11:40:46;46.80;;;16.52;;
19605;SDS011;9950;50.168;8.210;2023-02-15T11:43:15;42.28;;;16.17;;
19605;SDS011;9950;50.168;8.210;2023-02-15T11:45:44;44.20;;;17.10;;
19605;SDS011;9950;50.168;8.210;2023-02-15T11:48:12;38.83;;;16.40;;
19605;SDS011;9950;50.168;8.210;2023-02-15T11:50:41;38.80;;;16.00;;
19605;SDS011;9950;50.168;8.210;2023-02-15T11:53:09;44.25;;;17.35;;
19605;SDS011;9950;50.168;8.210;2023-02-15T11:55:37;38.90;;;16.02;;
19605;SDS011;9950;50.168;8.210;2023-02-15T11:58:05;40.22;;;16.77;;
19605;SDS011;9950;50.168;8.210;2023-02-15T12:00:36;35.60;;;15.65;;
19605;SDS011;9950;50.168;8.210;2023-02-15T12:03:07;33.08;;;15.07;;
19605;SDS011;9950;50.168;8.210;2023-02-15T12:05:37;37.55;;;15.15;;
19605;SDS011;9950;50.168;8.210;2023-02-15T12:08:12;33.13;;;15.00;;
19605;SDS011;9950;50.168;8.210;2023-02-15T12:10:42;36.75;;;15.98;;
19605;SDS011;9950;50.168;8.210;2023-02-15T12:13:13;34.38;;;16.20;;
19605;SDS011;9950;50.168;8.210;2023-02-15T12:15:41;29.90;;;15.20;;
19605;SDS011;9950;50.168;8.210;2023-02-15T12:18:16;36.33;;;15.88;;
19605;SDS011;9950;50.168;8.210;2023-02-15T12:20:45;30.02;;;14.55;;
19605;SDS011;9950;50.168;8.210;2023-02-15T12:23:14;29.60;;;14.82;;
19605;SDS011;9950;50.168;8.210;2023-02-15T12:25:42;35.50;;;16.08;;
19605;SDS011;9950;50.168;8.210;2023-02-15T12:28:21;33.20;;;16.33;;
19605;SDS011;9950;50.168;8.210;2023-02-15T12:30:49;33.83;;;14.65;;
19605;SDS011;9950;50.168;8.210;2023-02-15T12:33:21;32.55;;;16.02;;
19605;SDS011;9950;50.168;8.210;2023-02-15T12:35:54;30.92;;;14.55;;
19605;SDS011;9950;50.168;8.210;2023-02-15T12:38:26;33.50;;;15.52;;
19605;SDS011;9950;50.168;8.210;2023-02-15T12:40:57;32.35;;;16.23;;
19605;SDS011;9950;50.168;8.210;2023-02-15T12:43:25;38.65;;;17.27;;
19605;SDS011;9950;50.168;8.210;2023-02-15T12:45:53;33.88;;;15.90;;
19605;SDS011;9950;50.168;8.210;2023-02-15T12:48:20;39.67;;;17.52;;
19605;SDS011;9950;50.168;8.210;2023-02-15T12:50:48;38.15;;;17.35;;
19605;SDS011;9950;50.168;8.210;2023-02-15T12:53:16;35.20;;;16.92;;
19605;SDS011;9950;50.168;8.210;2023-02-15T12:55:50;36.90;;;17.73;;
19605;SDS011;9950;50.168;8.210;2023-02-15T12:58:19;32.97;;;16.90;;
19605;SDS011;9950;50.168;8.210;2023-02-15T13:00:48;32.42;;;16.33;;
19605;SDS011;9950;50.168;8.210;2023-02-15T13:03:16;35.13;;;17.10;;
19605;SDS011;9950;50.168;8.210;2023-02-15T13:05:44;37.05;;;18.20;;
19605;SDS011;9950;50.168;8.210;2023-02-15T13:08:14;39.08;;;18.15;;
19605;SDS011;9950;50.168;8.210;2023-02-15T13:10:43;35.13;;;17.55;;
19605;SDS011;9950;50.168;8.210;2023-02-15T13:13:21;35.55;;;17.35;;
19605;SDS011;9950;50.168;8.210;2023-02-15T13:15:50;37.65;;;18.25;;
19605;SDS011;9950;50.168;8.210;2023-02-15T13:18:18;33.60;;;17.45;;
19605;SDS011;9950;50.168;8.210;2023-02-15T13:20:50;37.35;;;17.77;;
19605;SDS011;9950;50.168;8.210;2023-02-15T13:23:22;37.40;;;18.45;;
19605;SDS011;9950;50.168;8.210;2023-02-15T13:25:52;37.72;;;17.90;;
19605;SDS011;9950;50.168;8.210;2023-02-15T13:28:22;33.65;;;17.33;;
19605;SDS011;9950;50.168;8.210;2023-02-15T13:30:51;34.42;;;17.73;;
19605;SDS011;9950;50.168;8.210;2023-02-15T13:33:20;35.55;;;17.30;;
19605;SDS011;9950;50.168;8.210;2023-02-15T13:35:55;33.65;;;16.85;;
19605;SDS011;9950;50.168;8.210;2023-02-15T13:38:29;36.45;;;17.73;;
19605;SDS011;9950;50.168;8.210;2023-02-15T13:41:01;36.97;;;17.90;;
19605;SDS011;9950;50.168;8.210;2023-02-15T13:43:35;35.97;;;17.45;;
19605;SDS011;9950;50.168;8.210;2023-02-15T13:46:07;34.70;;;17.17;;
19605;SDS011;9950;50.168;8.210;2023-02-15T13:48:40;29.90;;;16.40;;
19605;SDS011;9950;50.168;8.210;2023-02-15T13:51:11;30.90;;;15.85;;
19605;SDS011;9950;50.168;8.210;2023-02-15T13:53:47;31.40;;;16.35;;
19605;SDS011;9950;50.168;8.210;2023-02-15T13:56:17;29.10;;;16.10;;
19605;SDS011;9950;50.168;8.210;2023-02-15T14:01:42;34.28;;;18.42;;
19605;SDS011;9950;50.168;8.210;2023-02-15T14:04:21;32.55;;;16.70;;
19605;SDS011;9950;50.168;8.210;2023-02-15T14:07:03;35.33;;;17.55;;
19605;SDS011;9950;50.168;8.210;2023-02-15T14:09:37;33.65;;;17.00;;
19605;SDS011;9950;50.168;8.210;2023-02-15T14:12:13;37.60;;;18.05;;
19605;SDS011;9950;50.168;8.210;2023-02-15T14:15:00;37.33;;;18.60;;
19605;SDS011;9950;50.168;8.210;2023-02-15T14:17:35;36.25;;;18.52;;
19605;SDS011;9950;50.168;8.210;2023-02-15T14:20:06;38.80;;;18.52;;
19605;SDS011;9950;50.168;8.210;2023-02-15T14:22:38;37.63;;;18.75;;
19605;SDS011;9950;50.168;8.210;2023-02-15T14:25:14;40.88;;;19.58;;
19605;SDS011;9950;50.168;8.210;2023-02-15T14:27:47;37.95;;;18.90;;
19605;SDS011;9950;50.168;8.210;2023-02-15T14:30:18;41.75;;;20.45;;
19605;SDS011;9950;50.168;8.210;2023-02-15T14:32:49;38.97;;;19.58;;
19605;SDS011;9950;50.168;8.210;2023-02-15T14:35:18;40.60;;;19.20;;
19605;SDS011;9950;50.168;8.210;2023-02-15T14:37:46;41.88;;;19.27;;
19605;SDS011;9950;50.168;8.210;2023-02-15T14:40:17;40.28;;;19.33;;
19605;SDS011;9950;50.168;8.210;2023-02-15T14:43:05;64.13;;;19.98;;
19605;SDS011;9950;50.168;8.210;2023-02-15T14:45:34;50.85;;;20.17;;
19605;SDS011;9950;50.168;8.210;2023-02-15T14:48:10;48.13;;;20.52;;
19605;SDS011;9950;50.168;8.210;2023-02-15T14:50:43;47.35;;;20.52;;
19605;SDS011;9950;50.168;8.210;2023-02-15T14:53:22;40.33;;;19.95;;
19605;SDS011;9950;50.168;8.210;2023-02-15T14:56:04;44.13;;;20.42;;
19605;SDS011;9950;50.168;8.210;2023-02-15T14:58:33;61.97;;;20.38;;